createdAt,value
2023-01-10T00:01:07.844Z,84.68
2023-01-10T00:03:35.271Z,83.30
2023-01-10T00:06:04.159Z,84.63
2023-01-10T00:08:31.613Z,84.07
2023-01-10T00:11:19.060Z,84.61
2023-01-10T00:13:46.638Z,83.76
2023-01-10T00:16:13.938Z,84.45
2023-01-10T00:18:41.162Z,84.19
2023-01-10T00:21:10.676Z,84.81
2023-01-10T00:23:38.943Z,84.94
2023-01-10T00:26:06.473Z,83.52
2023-01-10T00:28:36.802Z,84.51
2023-01-10T00:31:07.352Z,84.37
2023-01-10T00:33:35.700Z,84.88
2023-01-10T00:36:04.856Z,83.91
2023-01-10T00:38:34.251Z,84.35
2023-01-10T00:41:01.982Z,84.03
2023-01-10T00:43:47.976Z,84.97
2023-01-10T00:46:15.371Z,85.02
2023-01-10T00:48:42.472Z,83.59
2023-01-10T00:51:09.995Z,84.43
2023-01-10T00:53:38.954Z,84.79
2023-01-10T00:56:07.002Z,84.44
2023-01-10T00:58:34.679Z,84.54
2023-01-10T01:01:02.055Z,84.50
2023-01-10T01:03:29.164Z,84.10
2023-01-10T01:05:56.438Z,84.76
2023-01-10T01:08:23.574Z,84.91
2023-01-10T01:10:52.367Z,84.06
2023-01-10T01:13:21.855Z,84.25
2023-01-10T01:15:49.557Z,84.75
2023-01-10T01:18:20.951Z,84.42
2023-01-10T01:20:53.272Z,84.60
2023-01-10T01:23:21.162Z,84.00
2023-01-10T01:25:50.879Z,83.62
2023-01-10T01:28:20.250Z,84.10
2023-01-10T01:30:47.588Z,85.04
2023-01-10T01:33:14.951Z,85.07
2023-01-10T01:35:42.822Z,83.61
2023-01-10T01:38:10.666Z,83.89
2023-01-10T01:40:39.353Z,84.26
2023-01-10T01:43:18.803Z,84.10
2023-01-10T01:45:47.875Z,84.29
2023-01-10T01:48:25.720Z,84.11
2023-01-10T01:51:05.403Z,84.30
2023-01-10T01:53:37.417Z,84.17
2023-01-10T01:56:09.819Z,84.24
2023-01-10T01:58:44.412Z,84.52
2023-01-10T02:01:15.509Z,85.02
2023-01-10T02:03:46.277Z,85.00
2023-01-10T02:06:15.503Z,85.08
2023-01-10T02:08:50.583Z,85.08
2023-01-10T02:11:17.913Z,84.66
2023-01-10T02:13:47.108Z,84.48
2023-01-10T02:16:16.184Z,85.25
2023-01-10T02:18:44.137Z,84.70
2023-01-10T02:21:25.337Z,84.99
2023-01-10T02:24:26.986Z,85.00
2023-01-10T02:27:17.423Z,85.22
2023-01-10T02:30:22.440Z,84.31
2023-01-10T02:33:05.239Z,84.65
2023-01-10T02:35:51.960Z,84.51
2023-01-10T02:38:33.147Z,84.48
2023-01-10T02:41:09.318Z,84.80
2023-01-10T02:43:41.700Z,84.62
2023-01-10T02:46:14.728Z,84.56
2023-01-10T02:48:43.826Z,84.46
2023-01-10T02:51:18.968Z,84.63
2023-01-10T02:53:50.896Z,84.78
2023-01-10T02:56:55.108Z,85.11
2023-01-10T02:59:56.696Z,85.09
2023-01-10T03:02:38.251Z,85.28
2023-01-10T03:05:12.128Z,84.58
2023-01-10T03:07:45.911Z,84.81
2023-01-10T03:10:17.011Z,84.55
2023-01-10T03:12:49.390Z,85.20
2023-01-10T03:15:20.106Z,84.58
2023-01-10T03:17:50.972Z,85.05
2023-01-10T03:20:21.401Z,84.66
2023-01-10T03:22:50.980Z,85.21
2023-01-10T03:25:21.915Z,84.78
2023-01-10T03:27:55.858Z,85.00
2023-01-10T03:30:30.666Z,85.20
2023-01-10T03:33:00.141Z,85.32
2023-01-10T03:35:36.730Z,84.64
2023-01-10T03:38:08.720Z,84.71
2023-01-10T03:40:44.172Z,84.72
2023-01-10T03:43:39.874Z,84.75
2023-01-10T03:46:12.117Z,85.31
2023-01-10T03:48:44.093Z,84.81
2023-01-10T03:51:14.456Z,85.26
2023-01-10T03:53:41.845Z,85.07
2023-01-10T03:56:13.010Z,84.78
2023-01-10T03:58:40.619Z,85.03
2023-01-10T04:01:08.126Z,85.18
2023-01-10T04:03:35.504Z,84.87
2023-01-10T04:06:03.558Z,85.10
2023-01-10T04:08:32.167Z,85.03
2023-01-10T04:10:59.548Z,84.80
2023-01-10T04:13:26.940Z,84.94
2023-01-10T04:15:54.009Z,85.34
2023-01-10T04:18:21.302Z,85.06
2023-01-10T04:20:48.850Z,85.03
2023-01-10T04:23:16.973Z,85.38
2023-01-10T04:25:48.304Z,85.45
2023-01-10T04:28:15.607Z,85.49
2023-01-10T04:30:42.586Z,85.39
2023-01-10T04:33:11.846Z,85.02
2023-01-10T04:35:39.096Z,85.40
2023-01-10T04:38:06.602Z,85.22
2023-01-10T04:40:34.004Z,85.10
2023-01-10T04:43:02.627Z,85.13
2023-01-10T04:45:29.955Z,85.33
2023-01-10T04:48:00.159Z,84.74
2023-01-10T04:50:27.870Z,84.97
2023-01-10T04:52:55.275Z,85.13
2023-01-10T04:55:22.399Z,85.12
2023-01-10T04:57:49.611Z,85.54
2023-01-10T05:00:19.121Z,85.52
2023-01-10T05:02:46.699Z,85.16
2023-01-10T05:05:14.545Z,85.51
2023-01-10T05:07:42.060Z,85.47
2023-01-10T05:10:11.180Z,85.01
2023-01-10T05:12:38.566Z,85.15
2023-01-10T05:15:06.870Z,85.25
2023-01-10T05:17:35.785Z,85.27
2023-01-10T05:20:03.380Z,85.30
2023-01-10T05:22:31.608Z,85.30
2023-01-10T05:24:58.932Z,85.04
2023-01-10T05:27:26.191Z,85.17
2023-01-10T05:29:54.560Z,85.44
2023-01-10T05:32:21.989Z,85.56
2023-01-10T05:34:50.903Z,85.32
2023-01-10T05:37:18.155Z,85.73
2023-01-10T05:39:45.247Z,85.40
2023-01-10T05:42:12.629Z,85.54
2023-01-10T05:44:40.046Z,85.48
2023-01-10T05:47:07.447Z,85.59
2023-01-10T05:49:34.857Z,85.15
2023-01-10T05:52:04.074Z,85.83
2023-01-10T05:54:31.397Z,85.98
2023-01-10T05:56:58.362Z,85.38
2023-01-10T05:59:28.874Z,86.00
2023-01-10T06:01:56.305Z,86.20
2023-01-10T06:04:23.721Z,85.41
2023-01-10T06:06:51.209Z,85.78
2023-01-10T06:09:20.043Z,85.77
2023-01-10T06:11:47.681Z,85.49
2023-01-10T06:14:19.345Z,85.75
2023-01-10T06:16:47.062Z,85.72
2023-01-10T06:19:14.620Z,85.56
2023-01-10T06:21:41.891Z,85.68
2023-01-10T06:24:09.778Z,85.57
2023-01-10T06:26:38.537Z,85.60
2023-01-10T06:29:06.738Z,85.64
2023-01-10T06:31:34.286Z,85.46
2023-01-10T06:34:01.765Z,85.41
2023-01-10T06:36:29.247Z,85.72
2023-01-10T06:38:56.523Z,85.52
2023-01-10T06:41:24.116Z,85.70
2023-01-10T06:43:52.832Z,85.79
2023-01-10T06:46:20.320Z,85.86
2023-01-10T06:48:48.380Z,85.46
2023-01-10T06:51:19.148Z,85.90
2023-01-10T06:53:47.665Z,86.01
2023-01-10T06:56:15.083Z,86.13
2023-01-10T06:58:42.499Z,85.97
2023-01-10T07:01:16.174Z,85.86
2023-01-10T07:03:44.099Z,85.75
2023-01-10T07:06:11.799Z,85.95
2023-01-10T07:08:40.640Z,86.25
2023-01-10T07:11:09.173Z,85.76
2023-01-10T07:13:36.778Z,86.25
2023-01-10T07:16:06.047Z,86.18
2023-01-10T07:18:35.838Z,86.18
2023-01-10T07:21:03.350Z,86.21
2023-01-10T07:23:33.311Z,86.26
2023-01-10T07:26:03.969Z,85.78
2023-01-10T07:28:31.619Z,85.63
2023-01-10T07:30:59.981Z,85.79
2023-01-10T07:33:27.650Z,85.97
2023-01-10T07:35:56.538Z,85.82
2023-01-10T07:38:26.652Z,85.12
2023-01-10T07:40:54.021Z,85.40
2023-01-10T07:43:21.459Z,85.05
2023-01-10T07:45:48.833Z,85.40
2023-01-10T07:48:16.258Z,84.59
2023-01-10T07:50:43.812Z,85.29
2023-01-10T07:53:12.712Z,84.40
2023-01-10T07:55:40.255Z,84.89
2023-01-10T07:58:08.178Z,84.63
2023-01-10T08:00:35.709Z,83.50
2023-01-10T08:03:03.526Z,84.55
2023-01-10T08:05:30.879Z,84.04
2023-01-10T08:08:04.813Z,83.59
2023-01-10T08:10:34.295Z,83.66
2023-01-10T08:13:13.220Z,83.60
2023-01-10T08:15:47.355Z,83.06
2023-01-10T08:18:14.948Z,82.84
2023-01-10T08:20:42.359Z,82.49
2023-01-10T08:23:09.794Z,81.95
2023-01-10T08:25:39.567Z,82.01
2023-01-10T08:28:07.568Z,81.77
2023-01-10T08:30:35.072Z,81.59
2023-01-10T08:33:03.644Z,81.58
2023-01-10T08:35:31.396Z,81.53
2023-01-10T08:38:00.251Z,81.57
2023-01-10T08:40:27.771Z,81.19
2023-01-10T08:43:00.845Z,81.00
2023-01-10T08:45:28.286Z,81.09
2023-01-10T08:47:56.126Z,80.89
2023-01-10T08:50:24.224Z,80.13
2023-01-10T08:52:51.712Z,80.89
2023-01-10T08:55:19.930Z,80.46
2023-01-10T08:57:47.237Z,80.21
2023-01-10T09:00:16.840Z,80.48
2023-01-10T09:02:44.399Z,80.04
2023-01-10T09:05:22.296Z,79.79
2023-01-10T09:07:57.987Z,79.49
2023-01-10T09:10:25.768Z,79.42
2023-01-10T09:12:55.731Z,78.94
2023-01-10T09:15:26.873Z,78.66
2023-01-10T09:17:55.298Z,78.64
2023-01-10T09:20:24.224Z,78.63
2023-01-10T09:22:51.844Z,79.04
2023-01-10T09:25:19.463Z,79.09
2023-01-10T09:27:46.854Z,78.91
2023-01-10T09:30:15.200Z,78.80
2023-01-10T09:32:44.085Z,78.36
2023-01-10T09:35:11.553Z,78.59
2023-01-10T09:37:39.072Z,78.14
2023-01-10T09:40:07.700Z,77.75
2023-01-10T09:42:51.624Z,77.57
2023-01-10T09:45:27.094Z,76.96
2023-01-10T09:48:01.714Z,76.72
2023-01-10T09:50:36.150Z,76.34
2023-01-10T09:53:10.333Z,75.84
2023-01-10T09:55:39.277Z,75.98
2023-01-10T09:58:13.426Z,75.79
2023-01-10T10:00:44.610Z,75.71
2023-01-10T10:03:24.915Z,75.58
2023-01-10T10:05:56.000Z,75.24
2023-01-10T10:08:25.566Z,75.26
2023-01-10T10:11:05.936Z,74.88
2023-01-10T10:13:39.320Z,74.90
2023-01-10T10:16:14.782Z,74.07
2023-01-10T10:18:55.984Z,74.23
2023-01-10T10:21:33.849Z,73.72
2023-01-10T10:24:23.532Z,73.78
2023-01-10T10:26:58.792Z,73.26
2023-01-10T10:29:51.832Z,73.59
2023-01-10T10:32:46.247Z,73.29
2023-01-10T10:35:21.908Z,72.86
2023-01-10T10:37:52.224Z,73.08
2023-01-10T10:40:22.147Z,73.07
2023-01-10T10:42:52.371Z,72.96
2023-01-10T10:45:25.290Z,73.05
2023-01-10T10:47:57.539Z,72.73
2023-01-10T10:50:32.064Z,72.80
2023-01-10T10:53:06.468Z,72.21
2023-01-10T10:55:35.831Z,72.35
2023-01-10T10:58:07.151Z,72.27
2023-01-10T11:00:35.974Z,72.09
2023-01-10T11:03:07.848Z,72.26
2023-01-10T11:05:40.862Z,72.18
2023-01-10T11:08:12.729Z,72.06
2023-01-10T11:10:41.135Z,71.81
2023-01-10T11:13:18.127Z,72.10
2023-01-10T11:15:49.119Z,71.64
2023-01-10T11:18:18.304Z,71.52
2023-01-10T11:20:53.125Z,71.86
2023-01-10T11:23:26.805Z,71.47
2023-01-10T11:25:53.876Z,71.72
2023-01-10T11:28:26.242Z,71.21
2023-01-10T11:30:53.886Z,71.40
2023-01-10T11:33:26.285Z,71.52
2023-01-10T11:36:00.968Z,71.78
2023-01-10T11:38:30.423Z,71.39
2023-01-10T11:41:00.588Z,71.21
2023-01-10T11:43:31.482Z,71.89
2023-01-10T11:46:04.765Z,72.08
2023-01-10T11:49:04.377Z,71.33
2023-01-10T11:51:37.328Z,71.89
2023-01-10T11:54:07.011Z,71.40
2023-01-10T11:56:36.266Z,71.69
2023-01-10T11:59:12.711Z,71.96
2023-01-10T12:01:43.525Z,71.78
2023-01-10T12:04:14.983Z,71.79
2023-01-10T12:06:46.421Z,71.84
2023-01-10T12:09:33.600Z,71.41
2023-01-10T12:12:01.884Z,71.91
2023-01-10T12:14:29.352Z,71.89
2023-01-10T12:17:01.308Z,71.89
2023-01-10T12:19:29.748Z,71.89
2023-01-10T12:22:04.122Z,71.91
2023-01-10T12:24:34.757Z,72.16
2023-01-10T12:27:03.777Z,71.95
2023-01-10T12:29:36.974Z,71.57
2023-01-10T12:32:09.329Z,71.79
2023-01-10T12:34:45.701Z,72.04
2023-01-10T12:37:20.396Z,72.14
2023-01-10T12:39:53.392Z,72.02
2023-01-10T12:42:49.175Z,71.93
2023-01-10T12:45:23.873Z,72.08
2023-01-10T12:48:00.855Z,72.50
2023-01-10T12:50:32.787Z,72.41
2023-01-10T12:53:05.919Z,72.45
2023-01-10T12:55:38.185Z,72.16
2023-01-10T12:58:06.531Z,72.52
2023-01-10T13:00:47.494Z,72.49
2023-01-10T13:03:20.255Z,72.16
2023-01-10T13:05:50.053Z,72.42
2023-01-10T13:08:23.470Z,72.18
2023-01-10T13:10:56.108Z,72.63
2023-01-10T13:13:33.385Z,72.52
2023-01-10T13:16:15.286Z,72.24
2023-01-10T13:19:02.103Z,72.38
2023-01-10T13:21:30.332Z,72.53
2023-01-10T13:24:03.788Z,72.60
2023-01-10T13:26:53.334Z,72.56
2023-01-10T13:29:23.686Z,72.28
2023-01-10T13:31:57.682Z,72.88
2023-01-10T13:34:27.993Z,72.51
2023-01-10T13:36:58.438Z,72.56
2023-01-10T13:39:34.482Z,72.37
2023-01-10T13:42:42.501Z,72.58
2023-01-10T13:45:27.626Z,72.64
2023-01-10T13:48:00.862Z,72.71
2023-01-10T13:50:51.404Z,72.65
2023-01-10T13:53:45.255Z,72.51
2023-01-10T13:56:37.607Z,72.43
2023-01-10T13:59:30.124Z,72.53
2023-01-10T14:02:19.225Z,72.60
2023-01-10T14:04:50.396Z,72.25
2023-01-10T14:07:29.690Z,72.61
2023-01-10T14:10:04.824Z,72.34
2023-01-10T14:12:39.779Z,72.28
2023-01-10T14:15:24.699Z,72.31
2023-01-10T14:18:01.168Z,72.56
2023-01-10T14:20:30.913Z,72.68
2023-01-10T14:23:02.752Z,72.47
2023-01-10T14:25:32.831Z,72.55
2023-01-10T14:28:02.709Z,72.40
2023-01-10T14:30:33.151Z,72.29
2023-01-10T14:33:07.289Z,72.31
2023-01-10T14:35:39.321Z,72.42
2023-01-10T14:38:13.699Z,72.40
2023-01-10T14:40:44.655Z,72.27
2023-01-10T14:43:17.809Z,72.67
2023-01-10T14:45:55.262Z,72.32
2023-01-10T14:48:29.478Z,73.08
2023-01-10T14:51:16.296Z,72.49
2023-01-10T14:53:43.826Z,72.72
2023-01-10T14:56:19.995Z,72.80
2023-01-10T14:58:48.806Z,72.99
2023-01-10T15:01:22.808Z,72.97
2023-01-10T15:03:51.588Z,72.65
2023-01-10T15:06:19.033Z,72.54
2023-01-10T15:08:46.587Z,73.25
2023-01-10T15:11:15.366Z,72.83
2023-01-10T15:13:49.437Z,73.05
2023-01-10T15:18:49.390Z,73.08
2023-01-10T15:21:22.150Z,73.34
2023-01-10T15:23:50.517Z,72.96
2023-01-10T15:26:20.352Z,72.97
2023-01-10T15:29:07.089Z,73.49
2023-01-10T15:31:38.684Z,73.17
2023-01-10T15:34:11.033Z,73.34
2023-01-10T15:36:45.963Z,73.19
2023-01-10T15:39:24.222Z,73.62
2023-01-10T15:41:57.168Z,73.54
2023-01-10T15:44:35.910Z,73.94
2023-01-10T15:47:05.127Z,73.27
2023-01-10T15:49:32.899Z,73.10
2023-01-10T15:52:00.387Z,73.39
2023-01-10T15:54:30.970Z,73.39
2023-01-10T15:57:04.823Z,73.64
2023-01-10T15:59:37.278Z,73.95
2023-01-10T16:02:22.557Z,74.22
2023-01-10T16:04:51.450Z,74.00
2023-01-10T16:07:23.155Z,74.11
2023-01-10T16:09:54.792Z,74.26
2023-01-10T16:12:45.683Z,74.21
2023-01-10T16:15:19.345Z,73.65
2023-01-10T16:17:48.366Z,74.69
2023-01-10T16:20:16.402Z,74.42
2023-01-10T16:22:44.932Z,73.98
2023-01-10T16:25:18.542Z,74.39
2023-01-10T16:27:46.308Z,74.46
2023-01-10T16:30:32.429Z,74.82
2023-01-10T16:33:09.384Z,74.86
2023-01-10T16:35:36.763Z,74.36
2023-01-10T16:38:04.431Z,74.57
2023-01-10T16:40:36.671Z,74.68
2023-01-10T16:43:21.670Z,74.92
2023-01-10T16:45:51.262Z,74.75
2023-01-10T16:48:21.005Z,75.00
2023-01-10T16:50:49.234Z,74.60
2023-01-10T16:53:18.933Z,74.24
2023-01-10T16:55:48.763Z,74.55
2023-01-10T16:58:18.425Z,74.99
2023-01-10T17:00:49.193Z,75.27
2023-01-10T17:03:21.523Z,74.96
2023-01-10T17:05:49.468Z,75.09
2023-01-10T17:08:20.452Z,74.52
2023-01-10T17:10:51.035Z,75.12
2023-01-10T17:13:23.877Z,74.85
2023-01-10T17:15:51.558Z,75.31
2023-01-10T17:18:20.468Z,75.12
2023-01-10T17:20:47.721Z,75.08
2023-01-10T17:23:15.854Z,75.04
2023-01-10T17:25:43.689Z,75.09
2023-01-10T17:28:12.211Z,75.03
2023-01-10T17:30:39.655Z,74.92
2023-01-10T17:33:10.996Z,75.40
2023-01-10T17:35:41.735Z,75.57
2023-01-10T17:38:11.006Z,75.55
2023-01-10T17:40:40.083Z,75.40
2023-01-10T17:43:07.502Z,75.07
2023-01-10T17:45:35.011Z,75.22
2023-01-10T17:48:02.294Z,75.40
2023-01-10T17:50:29.617Z,75.58
2023-01-10T17:52:58.236Z,75.64
2023-01-10T17:55:25.530Z,75.29
2023-01-10T17:57:54.634Z,75.71
2023-01-10T18:00:21.995Z,75.21
2023-01-10T18:02:49.332Z,75.77
2023-01-10T18:05:17.760Z,75.67
2023-01-10T18:07:47.608Z,75.31
2023-01-10T18:10:16.865Z,75.26
2023-01-10T18:12:44.210Z,75.13
2023-01-10T18:15:12.052Z,75.42
2023-01-10T18:17:39.218Z,75.12
2023-01-10T18:20:06.898Z,75.17
2023-01-10T18:22:57.178Z,75.56
2023-01-10T18:25:25.797Z,75.51
2023-01-10T18:27:53.402Z,75.17
2023-01-10T18:30:22.497Z,74.90
2023-01-10T18:32:53.319Z,75.24
2023-01-10T18:35:21.048Z,75.61
2023-01-10T18:37:48.495Z,75.24
2023-01-10T18:40:15.929Z,74.80
2023-01-10T18:42:44.727Z,74.87
2023-01-10T18:45:12.185Z,74.39
2023-01-10T18:47:39.523Z,74.49
2023-01-10T18:50:07.235Z,75.01
2023-01-10T18:52:34.728Z,74.75
2023-01-10T18:55:02.713Z,74.68
2023-01-10T18:57:32.607Z,74.17
2023-01-10T19:00:01.366Z,74.94
2023-01-10T19:02:28.851Z,73.96
2023-01-10T19:04:56.231Z,74.50
2023-01-10T19:07:23.927Z,74.12
2023-01-10T19:09:51.547Z,74.19
2023-01-10T19:12:20.311Z,74.25
2023-01-10T19:14:47.687Z,73.72
2023-01-10T19:17:18.359Z,74.22
2023-01-10T19:19:45.940Z,74.19
2023-01-10T19:22:13.365Z,73.60
2023-01-10T19:24:40.703Z,73.46
2023-01-10T19:27:08.187Z,73.35
2023-01-10T19:29:36.977Z,73.71
2023-01-10T19:32:04.368Z,73.69
2023-01-10T19:34:36.858Z,73.55
2023-01-10T19:37:13.248Z,73.30
2023-01-10T19:39:40.768Z,73.34
2023-01-10T19:42:08.371Z,73.33
2023-01-10T19:44:38.890Z,73.17
2023-01-10T19:47:06.381Z,72.85
2023-01-10T19:49:37.831Z,72.73
2023-01-10T19:52:05.602Z,72.88
2023-01-10T19:54:33.496Z,72.68
2023-01-10T19:57:03.450Z,72.10
2023-01-10T19:59:32.761Z,72.38
2023-01-10T20:02:02.700Z,72.42
2023-01-10T20:04:30.814Z,72.08
2023-01-10T20:06:59.960Z,71.55
2023-01-10T20:09:32.278Z,71.78
2023-01-10T20:11:59.749Z,71.23
2023-01-10T20:14:27.814Z,71.70
2023-01-10T20:16:55.278Z,71.38
2023-01-10T20:19:23.895Z,71.26
2023-01-10T20:21:51.360Z,70.82
2023-01-10T20:24:22.907Z,70.96
2023-01-10T20:26:53.517Z,70.26
2023-01-10T20:29:21.037Z,70.29
2023-01-10T20:31:52.834Z,70.28
2023-01-10T20:34:21.949Z,69.57
2023-01-10T20:36:52.479Z,69.99
2023-01-10T20:39:22.513Z,69.44
2023-01-10T20:41:50.082Z,69.38
2023-01-10T20:44:17.792Z,69.05
2023-01-10T20:46:45.289Z,69.52
2023-01-10T20:49:12.794Z,68.87
2023-01-10T20:51:43.101Z,68.78
2023-01-10T20:54:10.594Z,68.57
2023-01-10T20:56:39.442Z,68.62
2023-01-10T20:59:07.026Z,68.73
2023-01-10T21:01:35.640Z,68.63
2023-01-10T21:04:04.506Z,68.32
2023-01-10T21:06:32.319Z,67.92
2023-01-10T21:09:00.769Z,67.51
2023-01-10T21:11:28.573Z,67.67
2023-01-10T21:13:57.375Z,67.74
2023-01-10T21:16:25.710Z,67.37
2023-01-10T21:18:53.156Z,67.49
2023-01-10T21:21:24.896Z,67.40
2023-01-10T21:23:54.822Z,67.29
2023-01-10T21:26:22.951Z,67.57
2023-01-10T21:28:50.369Z,67.14
2023-01-10T21:31:20.997Z,66.42
2023-01-10T21:33:49.607Z,66.29
2023-01-10T21:36:17.803Z,66.38
2023-01-10T21:38:45.428Z,66.45
2023-01-10T21:41:14.702Z,66.79
2023-01-10T21:43:46.260Z,66.08
2023-01-10T21:46:13.781Z,65.79
2023-01-10T21:48:42.500Z,65.73
2023-01-10T21:51:09.767Z,65.75
2023-01-10T21:53:41.420Z,65.67
2023-01-10T21:56:09.009Z,65.83
2023-01-10T21:58:36.294Z,65.64
2023-01-10T22:01:03.804Z,66.11
2023-01-10T22:03:31.828Z,65.52
2023-01-10T22:06:01.509Z,65.83
2023-01-10T22:08:28.787Z,65.52
2023-01-10T22:10:56.048Z,65.23
2023-01-10T22:13:25.266Z,65.66
2023-01-10T22:15:58.181Z,64.71
2023-01-10T22:18:25.555Z,64.92
2023-01-10T22:20:54.847Z,64.83
2023-01-10T22:23:24.227Z,65.26
2023-01-10T22:26:01.980Z,64.55
2023-01-10T22:28:29.402Z,64.90
2023-01-10T22:30:56.980Z,64.61
2023-01-10T22:33:29.155Z,64.35
2023-01-10T22:35:56.798Z,64.33
2023-01-10T22:38:28.579Z,64.44
2023-01-10T22:40:56.010Z,64.91
2023-01-10T22:43:23.319Z,64.47
2023-01-10T22:45:50.666Z,64.06
2023-01-10T22:48:18.012Z,64.61
2023-01-10T22:50:49.048Z,64.31
2023-01-10T22:53:16.455Z,64.66
2023-01-10T22:55:45.065Z,64.08
2023-01-10T22:58:12.484Z,64.37
2023-01-10T23:00:40.040Z,63.92
2023-01-10T23:03:07.352Z,64.33
2023-01-10T23:05:34.692Z,63.80
2023-01-10T23:08:02.016Z,63.88
2023-01-10T23:10:31.000Z,63.84
2023-01-10T23:13:02.206Z,63.96
2023-01-10T23:15:29.759Z,63.63
2023-01-10T23:17:57.030Z,64.15
2023-01-10T23:20:24.697Z,64.00
2023-01-10T23:22:52.090Z,64.04
2023-01-10T23:25:19.496Z,63.63
2023-01-10T23:27:47.014Z,63.58
2023-01-10T23:30:16.291Z,63.55
2023-01-10T23:32:43.607Z,63.97
2023-01-10T23:35:10.927Z,63.46
2023-01-10T23:37:38.429Z,63.22
2023-01-10T23:40:07.145Z,63.68
2023-01-10T23:42:34.713Z,63.62
2023-01-10T23:45:02.028Z,63.00
2023-01-10T23:47:32.571Z,63.01
2023-01-10T23:50:00.040Z,63.19
2023-01-10T23:52:27.494Z,63.06
2023-01-10T23:54:54.747Z,63.22
2023-01-10T23:57:22.145Z,63.01
2023-01-10T23:59:49.522Z,62.69
